<?xml version="1.0" encoding="UTF-8" standalone="no" ?>
<gpx xmlns="http://www.topografix.com/GPX/1/1" xmlns:xsi="http://www.w3.org/2001/XMLSchema-instance" xsi:schemaLocation="http://www.topografix.com/GPX/1/1 http://www.topografix.com/GPX/1/1/gpx.xsd" version="1.1" creator="VisuGPX - https://www.visugpx.com">
  <metadata>
    <name>rando la romieu 12km 950</name>
    <desc><![CDATA[ role de serre file]]></desc>
  </metadata>
  <trk>
    <name><![CDATA[rando la romieu 12km 950_1]]></name>
    <trkseg>
      <trkpt lat="43.98166" lon="0.49561">
        <ele>90</ele>
        <time>2014-03-24T13:01:59Z</time>
      </trkpt>
      <trkpt lat="43.98165" lon="0.49564">
        <ele>91</ele>
        <time>2014-03-24T13:02:29Z</time>
      </trkpt>
      <trkpt lat="43.98164" lon="0.49566">
        <ele>91</ele>
        <time>2014-03-24T13:02:59Z</time>
      </trkpt>
      <trkpt lat="43.98162" lon="0.49564">
        <ele>91</ele>
        <time>2014-03-24T13:03:29Z</time>
      </trkpt>
      <trkpt lat="43.98162" lon="0.49566">
        <ele>89</ele>
        <time>2014-03-24T13:03:59Z</time>
      </trkpt>
      <trkpt lat="43.98164" lon="0.49563">
        <ele>89</ele>
        <time>2014-03-24T13:04:30Z</time>
      </trkpt>
      <trkpt lat="43.98168" lon="0.49567">
        <ele>89</ele>
        <time>2014-03-24T13:05:00Z</time>
      </trkpt>
      <trkpt lat="43.98179" lon="0.49602">
        <ele>87</ele>
        <time>2014-03-24T13:05:30Z</time>
      </trkpt>
      <trkpt lat="43.98191" lon="0.4964">
        <ele>87</ele>
        <time>2014-03-24T13:06:00Z</time>
      </trkpt>
      <trkpt lat="43.98171" lon="0.49679">
        <ele>87</ele>
        <time>2014-03-24T13:06:30Z</time>
      </trkpt>
      <trkpt lat="43.98161" lon="0.4971">
        <ele>89</ele>
        <time>2014-03-24T13:07:01Z</time>
      </trkpt>
      <trkpt lat="43.98153" lon="0.4973">
        <ele>89</ele>
        <time>2014-03-24T13:07:31Z</time>
      </trkpt>
      <trkpt lat="43.98161" lon="0.49737">
        <ele>89</ele>
        <time>2014-03-24T13:08:01Z</time>
      </trkpt>
      <trkpt lat="43.98179" lon="0.49747">
        <ele>89</ele>
        <time>2014-03-24T13:08:31Z</time>
      </trkpt>
      <trkpt lat="43.98208" lon="0.49758">
        <ele>89</ele>
        <time>2014-03-24T13:09:01Z</time>
      </trkpt>
      <trkpt lat="43.98241" lon="0.49764">
        <ele>92</ele>
        <time>2014-03-24T13:09:32Z</time>
      </trkpt>
      <trkpt lat="43.98275" lon="0.49801">
        <ele>88</ele>
        <time>2014-03-24T13:10:02Z</time>
      </trkpt>
      <trkpt lat="43.98296" lon="0.49823">
        <ele>88</ele>
        <time>2014-03-24T13:10:32Z</time>
      </trkpt>
      <trkpt lat="43.98327" lon="0.49852">
        <ele>83</ele>
        <time>2014-03-24T13:11:02Z</time>
      </trkpt>
      <trkpt lat="43.98356" lon="0.49879">
        <ele>83</ele>
        <time>2014-03-24T13:11:32Z</time>
      </trkpt>
      <trkpt lat="43.98392" lon="0.49898">
        <ele>83</ele>
        <time>2014-03-24T13:12:03Z</time>
      </trkpt>
      <trkpt lat="43.98428" lon="0.49925">
        <ele>83</ele>
        <time>2014-03-24T13:12:33Z</time>
      </trkpt>
      <trkpt lat="43.98455" lon="0.49968">
        <ele>83</ele>
        <time>2014-03-24T13:13:03Z</time>
      </trkpt>
      <trkpt lat="43.98473" lon="0.5001">
        <ele>83</ele>
        <time>2014-03-24T13:13:33Z</time>
      </trkpt>
      <trkpt lat="43.98498" lon="0.50052">
        <ele>83</ele>
        <time>2014-03-24T13:14:03Z</time>
      </trkpt>
      <trkpt lat="43.98529" lon="0.50081">
        <ele>83</ele>
        <time>2014-03-24T13:14:34Z</time>
      </trkpt>
      <trkpt lat="43.98564" lon="0.50094">
        <ele>84</ele>
        <time>2014-03-24T13:15:04Z</time>
      </trkpt>
      <trkpt lat="43.98598" lon="0.50102">
        <ele>84</ele>
        <time>2014-03-24T13:15:34Z</time>
      </trkpt>
      <trkpt lat="43.98631" lon="0.5012">
        <ele>84</ele>
        <time>2014-03-24T13:16:05Z</time>
      </trkpt>
      <trkpt lat="43.98664" lon="0.50136">
        <ele>84</ele>
        <time>2014-03-24T13:16:35Z</time>
      </trkpt>
      <trkpt lat="43.98695" lon="0.50132">
        <ele>79</ele>
        <time>2014-03-24T13:17:05Z</time>
      </trkpt>
      <trkpt lat="43.98733" lon="0.50125">
        <ele>79</ele>
        <time>2014-03-24T13:17:35Z</time>
      </trkpt>
      <trkpt lat="43.98772" lon="0.50115">
        <ele>79</ele>
        <time>2014-03-24T13:18:05Z</time>
      </trkpt>
      <trkpt lat="43.98806" lon="0.50108">
        <ele>76</ele>
        <time>2014-03-24T13:18:36Z</time>
      </trkpt>
      <trkpt lat="43.98846" lon="0.50113">
        <ele>76</ele>
        <time>2014-03-24T13:19:06Z</time>
      </trkpt>
      <trkpt lat="43.98883" lon="0.50115">
        <ele>72</ele>
        <time>2014-03-24T13:19:36Z</time>
      </trkpt>
      <trkpt lat="43.98918" lon="0.50119">
        <ele>64</ele>
        <time>2014-03-24T13:20:06Z</time>
      </trkpt>
      <trkpt lat="43.98955" lon="0.50125">
        <ele>60</ele>
        <time>2014-03-24T13:20:36Z</time>
      </trkpt>
      <trkpt lat="43.98993" lon="0.50128">
        <ele>60</ele>
        <time>2014-03-24T13:21:07Z</time>
      </trkpt>
      <trkpt lat="43.99035" lon="0.50121">
        <ele>51</ele>
        <time>2014-03-24T13:21:37Z</time>
      </trkpt>
      <trkpt lat="43.9907" lon="0.5012">
        <ele>51</ele>
        <time>2014-03-24T13:22:07Z</time>
      </trkpt>
      <trkpt lat="43.99105" lon="0.50138">
        <ele>51</ele>
        <time>2014-03-24T13:22:37Z</time>
      </trkpt>
      <trkpt lat="43.99138" lon="0.50167">
        <ele>48</ele>
        <time>2014-03-24T13:23:08Z</time>
      </trkpt>
      <trkpt lat="43.9917" lon="0.502">
        <ele>48</ele>
        <time>2014-03-24T13:23:38Z</time>
      </trkpt>
      <trkpt lat="43.992" lon="0.50233">
        <ele>48</ele>
        <time>2014-03-24T13:24:08Z</time>
      </trkpt>
      <trkpt lat="43.99225" lon="0.50235">
        <ele>48</ele>
        <time>2014-03-24T13:24:38Z</time>
      </trkpt>
      <trkpt lat="43.99237" lon="0.50188">
        <ele>47</ele>
        <time>2014-03-24T13:25:09Z</time>
      </trkpt>
      <trkpt lat="43.99257" lon="0.5015">
        <ele>47</ele>
        <time>2014-03-24T13:25:39Z</time>
      </trkpt>
      <trkpt lat="43.99291" lon="0.50151">
        <ele>47</ele>
        <time>2014-03-24T13:26:09Z</time>
      </trkpt>
      <trkpt lat="43.99317" lon="0.50159">
        <ele>46</ele>
        <time>2014-03-24T13:26:40Z</time>
      </trkpt>
      <trkpt lat="43.9935" lon="0.50163">
        <ele>46</ele>
        <time>2014-03-24T13:27:10Z</time>
      </trkpt>
      <trkpt lat="43.99377" lon="0.50167">
        <ele>46</ele>
        <time>2014-03-24T13:27:40Z</time>
      </trkpt>
      <trkpt lat="43.99409" lon="0.50171">
        <ele>42</ele>
        <time>2014-03-24T13:28:10Z</time>
      </trkpt>
      <trkpt lat="43.99448" lon="0.50175">
        <ele>42</ele>
        <time>2014-03-24T13:28:40Z</time>
      </trkpt>
      <trkpt lat="43.99476" lon="0.50179">
        <ele>42</ele>
        <time>2014-03-24T13:29:11Z</time>
      </trkpt>
      <trkpt lat="43.99511" lon="0.50182">
        <ele>42</ele>
        <time>2014-03-24T13:29:41Z</time>
      </trkpt>
      <trkpt lat="43.99542" lon="0.50192">
        <ele>43</ele>
        <time>2014-03-24T13:30:11Z</time>
      </trkpt>
      <trkpt lat="43.99574" lon="0.50205">
        <ele>43</ele>
        <time>2014-03-24T13:30:41Z</time>
      </trkpt>
      <trkpt lat="43.99606" lon="0.50217">
        <ele>43</ele>
        <time>2014-03-24T13:31:11Z</time>
      </trkpt>
      <trkpt lat="43.9963" lon="0.50204">
        <ele>43</ele>
        <time>2014-03-24T13:31:42Z</time>
      </trkpt>
      <trkpt lat="43.99641" lon="0.50159">
        <ele>44</ele>
        <time>2014-03-24T13:32:12Z</time>
      </trkpt>
      <trkpt lat="43.99666" lon="0.50156">
        <ele>44</ele>
        <time>2014-03-24T13:32:42Z</time>
      </trkpt>
      <trkpt lat="43.99698" lon="0.50148">
        <ele>48</ele>
        <time>2014-03-24T13:33:12Z</time>
      </trkpt>
      <trkpt lat="43.99722" lon="0.50126">
        <ele>48</ele>
        <time>2014-03-24T13:33:43Z</time>
      </trkpt>
      <trkpt lat="43.99744" lon="0.50099">
        <ele>53</ele>
        <time>2014-03-24T13:34:13Z</time>
      </trkpt>
      <trkpt lat="43.99767" lon="0.50071">
        <ele>53</ele>
        <time>2014-03-24T13:34:43Z</time>
      </trkpt>
      <trkpt lat="43.99789" lon="0.50053">
        <ele>58</ele>
        <time>2014-03-24T13:35:13Z</time>
      </trkpt>
      <trkpt lat="43.9982" lon="0.50051">
        <ele>66</ele>
        <time>2014-03-24T13:35:43Z</time>
      </trkpt>
      <trkpt lat="43.9985" lon="0.50047">
        <ele>66</ele>
        <time>2014-03-24T13:36:13Z</time>
      </trkpt>
      <trkpt lat="43.99874" lon="0.50045">
        <ele>72</ele>
        <time>2014-03-24T13:36:44Z</time>
      </trkpt>
      <trkpt lat="43.99894" lon="0.5005">
        <ele>77</ele>
        <time>2014-03-24T13:37:14Z</time>
      </trkpt>
      <trkpt lat="43.99914" lon="0.50059">
        <ele>82</ele>
        <time>2014-03-24T13:37:44Z</time>
      </trkpt>
      <trkpt lat="43.99907" lon="0.50061">
        <ele>82</ele>
        <time>2014-03-24T13:38:14Z</time>
      </trkpt>
      <trkpt lat="43.99911" lon="0.50059">
        <ele>82</ele>
        <time>2014-03-24T13:38:44Z</time>
      </trkpt>
      <trkpt lat="43.99913" lon="0.50062">
        <ele>82</ele>
        <time>2014-03-24T13:39:14Z</time>
      </trkpt>
      <trkpt lat="43.99915" lon="0.50064">
        <ele>82</ele>
        <time>2014-03-24T13:39:45Z</time>
      </trkpt>
      <trkpt lat="43.99933" lon="0.50076">
        <ele>82</ele>
        <time>2014-03-24T13:40:15Z</time>
      </trkpt>
      <trkpt lat="43.99953" lon="0.50084">
        <ele>82</ele>
        <time>2014-03-24T13:40:45Z</time>
      </trkpt>
      <trkpt lat="43.99969" lon="0.50069">
        <ele>84</ele>
        <time>2014-03-24T13:41:15Z</time>
      </trkpt>
      <trkpt lat="43.99978" lon="0.50031">
        <ele>89</ele>
        <time>2014-03-24T13:41:45Z</time>
      </trkpt>
      <trkpt lat="43.99994" lon="0.49998">
        <ele>89</ele>
        <time>2014-03-24T13:42:16Z</time>
      </trkpt>
      <trkpt lat="44.00015" lon="0.49965">
        <ele>93</ele>
        <time>2014-03-24T13:42:46Z</time>
      </trkpt>
      <trkpt lat="44.00036" lon="0.4994">
        <ele>93</ele>
        <time>2014-03-24T13:43:16Z</time>
      </trkpt>
      <trkpt lat="44.00051" lon="0.49907">
        <ele>93</ele>
        <time>2014-03-24T13:43:46Z</time>
      </trkpt>
      <trkpt lat="44.00053" lon="0.49867">
        <ele>97</ele>
        <time>2014-03-24T13:44:16Z</time>
      </trkpt>
      <trkpt lat="44.00031" lon="0.49842">
        <ele>97</ele>
        <time>2014-03-24T13:44:47Z</time>
      </trkpt>
      <trkpt lat="44.00004" lon="0.49819">
        <ele>93</ele>
        <time>2014-03-24T13:45:17Z</time>
      </trkpt>
      <trkpt lat="43.99976" lon="0.49799">
        <ele>89</ele>
        <time>2014-03-24T13:45:47Z</time>
      </trkpt>
      <trkpt lat="43.99948" lon="0.49777">
        <ele>84</ele>
        <time>2014-03-24T13:46:17Z</time>
      </trkpt>
      <trkpt lat="43.99919" lon="0.49754">
        <ele>84</ele>
        <time>2014-03-24T13:46:47Z</time>
      </trkpt>
      <trkpt lat="43.99891" lon="0.49734">
        <ele>78</ele>
        <time>2014-03-24T13:47:18Z</time>
      </trkpt>
      <trkpt lat="43.99862" lon="0.49722">
        <ele>72</ele>
        <time>2014-03-24T13:47:48Z</time>
      </trkpt>
      <trkpt lat="43.99834" lon="0.49705">
        <ele>68</ele>
        <time>2014-03-24T13:48:18Z</time>
      </trkpt>
      <trkpt lat="43.99807" lon="0.49694">
        <ele>68</ele>
        <time>2014-03-24T13:48:48Z</time>
      </trkpt>
      <trkpt lat="43.99794" lon="0.49688">
        <ele>68</ele>
        <time>2014-03-24T13:49:18Z</time>
      </trkpt>
      <trkpt lat="43.99776" lon="0.49678">
        <ele>68</ele>
        <time>2014-03-24T13:49:49Z</time>
      </trkpt>
      <trkpt lat="43.99751" lon="0.49666">
        <ele>70</ele>
        <time>2014-03-24T13:50:19Z</time>
      </trkpt>
      <trkpt lat="43.99731" lon="0.49654">
        <ele>75</ele>
        <time>2014-03-24T13:50:49Z</time>
      </trkpt>
      <trkpt lat="43.9971" lon="0.49643">
        <ele>79</ele>
        <time>2014-03-24T13:51:19Z</time>
      </trkpt>
      <trkpt lat="43.99694" lon="0.49631">
        <ele>85</ele>
        <time>2014-03-24T13:51:49Z</time>
      </trkpt>
      <trkpt lat="43.99676" lon="0.49619">
        <ele>86</ele>
        <time>2014-03-24T13:52:20Z</time>
      </trkpt>
      <trkpt lat="43.99652" lon="0.49604">
        <ele>91</ele>
        <time>2014-03-24T13:52:50Z</time>
      </trkpt>
      <trkpt lat="43.99631" lon="0.49596">
        <ele>91</ele>
        <time>2014-03-24T13:53:20Z</time>
      </trkpt>
      <trkpt lat="43.99608" lon="0.49586">
        <ele>91</ele>
        <time>2014-03-24T13:53:50Z</time>
      </trkpt>
      <trkpt lat="43.99603" lon="0.49577">
        <ele>93</ele>
        <time>2014-03-24T13:54:20Z</time>
      </trkpt>
      <trkpt lat="43.99604" lon="0.49562">
        <ele>93</ele>
        <time>2014-03-24T13:54:51Z</time>
      </trkpt>
      <trkpt lat="43.99614" lon="0.49522">
        <ele>93</ele>
        <time>2014-03-24T13:55:21Z</time>
      </trkpt>
      <trkpt lat="43.99619" lon="0.49476">
        <ele>94</ele>
        <time>2014-03-24T13:55:51Z</time>
      </trkpt>
      <trkpt lat="43.99625" lon="0.49444">
        <ele>98</ele>
        <time>2014-03-24T13:56:21Z</time>
      </trkpt>
      <trkpt lat="43.99632" lon="0.49398">
        <ele>98</ele>
        <time>2014-03-24T13:56:52Z</time>
      </trkpt>
      <trkpt lat="43.9964" lon="0.49356">
        <ele>103</ele>
        <time>2014-03-24T13:57:22Z</time>
      </trkpt>
      <trkpt lat="43.99632" lon="0.49307">
        <ele>103</ele>
        <time>2014-03-24T13:57:52Z</time>
      </trkpt>
      <trkpt lat="43.99614" lon="0.49267">
        <ele>103</ele>
        <time>2014-03-24T13:58:22Z</time>
      </trkpt>
      <trkpt lat="43.99595" lon="0.49228">
        <ele>102</ele>
        <time>2014-03-24T13:58:52Z</time>
      </trkpt>
      <trkpt lat="43.99578" lon="0.49184">
        <ele>102</ele>
        <time>2014-03-24T13:59:23Z</time>
      </trkpt>
      <trkpt lat="43.99549" lon="0.49172">
        <ele>98</ele>
        <time>2014-03-24T13:59:53Z</time>
      </trkpt>
      <trkpt lat="43.99528" lon="0.49145">
        <ele>98</ele>
        <time>2014-03-24T14:00:23Z</time>
      </trkpt>
      <trkpt lat="43.99504" lon="0.49117">
        <ele>98</ele>
        <time>2014-03-24T14:00:53Z</time>
      </trkpt>
      <trkpt lat="43.99484" lon="0.49089">
        <ele>94</ele>
        <time>2014-03-24T14:01:23Z</time>
      </trkpt>
      <trkpt lat="43.99464" lon="0.49064">
        <ele>94</ele>
        <time>2014-03-24T14:01:54Z</time>
      </trkpt>
      <trkpt lat="43.99442" lon="0.49031">
        <ele>94</ele>
        <time>2014-03-24T14:02:24Z</time>
      </trkpt>
      <trkpt lat="43.99422" lon="0.48991">
        <ele>89</ele>
        <time>2014-03-24T14:02:54Z</time>
      </trkpt>
      <trkpt lat="43.99405" lon="0.48966">
        <ele>89</ele>
        <time>2014-03-24T14:03:24Z</time>
      </trkpt>
      <trkpt lat="43.99397" lon="0.48951">
        <ele>89</ele>
        <time>2014-03-24T14:03:54Z</time>
      </trkpt>
      <trkpt lat="43.9939" lon="0.48923">
        <ele>89</ele>
        <time>2014-03-24T14:04:25Z</time>
      </trkpt>
      <trkpt lat="43.99418" lon="0.48895">
        <ele>88</ele>
        <time>2014-03-24T14:04:55Z</time>
      </trkpt>
      <trkpt lat="43.99441" lon="0.48857">
        <ele>88</ele>
        <time>2014-03-24T14:05:25Z</time>
      </trkpt>
      <trkpt lat="43.99445" lon="0.48816">
        <ele>88</ele>
        <time>2014-03-24T14:05:55Z</time>
      </trkpt>
      <trkpt lat="43.99452" lon="0.48763">
        <ele>88</ele>
        <time>2014-03-24T14:06:25Z</time>
      </trkpt>
      <trkpt lat="43.99471" lon="0.48728">
        <ele>88</ele>
        <time>2014-03-24T14:06:55Z</time>
      </trkpt>
      <trkpt lat="43.99495" lon="0.48696">
        <ele>88</ele>
        <time>2014-03-24T14:07:26Z</time>
      </trkpt>
      <trkpt lat="43.99507" lon="0.48659">
        <ele>92</ele>
        <time>2014-03-24T14:07:56Z</time>
      </trkpt>
      <trkpt lat="43.99516" lon="0.48609">
        <ele>92</ele>
        <time>2014-03-24T14:08:26Z</time>
      </trkpt>
      <trkpt lat="43.99533" lon="0.4857">
        <ele>95</ele>
        <time>2014-03-24T14:08:56Z</time>
      </trkpt>
      <trkpt lat="43.99554" lon="0.48531">
        <ele>99</ele>
        <time>2014-03-24T14:09:26Z</time>
      </trkpt>
      <trkpt lat="43.99569" lon="0.48489">
        <ele>99</ele>
        <time>2014-03-24T14:09:57Z</time>
      </trkpt>
      <trkpt lat="43.9959" lon="0.48471">
        <ele>103</ele>
        <time>2014-03-24T14:10:27Z</time>
      </trkpt>
      <trkpt lat="43.99618" lon="0.48478">
        <ele>103</ele>
        <time>2014-03-24T14:10:57Z</time>
      </trkpt>
      <trkpt lat="43.9965" lon="0.48494">
        <ele>107</ele>
        <time>2014-03-24T14:11:27Z</time>
      </trkpt>
      <trkpt lat="43.99646" lon="0.48531">
        <ele>107</ele>
        <time>2014-03-24T14:11:57Z</time>
      </trkpt>
      <trkpt lat="43.99655" lon="0.48564">
        <ele>107</ele>
        <time>2014-03-24T14:12:28Z</time>
      </trkpt>
      <trkpt lat="43.99682" lon="0.4857">
        <ele>106</ele>
        <time>2014-03-24T14:12:58Z</time>
      </trkpt>
      <trkpt lat="43.9971" lon="0.48578">
        <ele>106</ele>
        <time>2014-03-24T14:13:28Z</time>
      </trkpt>
      <trkpt lat="43.9974" lon="0.48586">
        <ele>110</ele>
        <time>2014-03-24T14:13:58Z</time>
      </trkpt>
      <trkpt lat="43.99772" lon="0.4859">
        <ele>110</ele>
        <time>2014-03-24T14:14:28Z</time>
      </trkpt>
      <trkpt lat="43.99805" lon="0.48588">
        <ele>110</ele>
        <time>2014-03-24T14:14:59Z</time>
      </trkpt>
      <trkpt lat="43.99833" lon="0.4858">
        <ele>112</ele>
        <time>2014-03-24T14:15:29Z</time>
      </trkpt>
      <trkpt lat="43.99864" lon="0.48559">
        <ele>112</ele>
        <time>2014-03-24T14:15:59Z</time>
      </trkpt>
      <trkpt lat="43.99883" lon="0.4852">
        <ele>112</ele>
        <time>2014-03-24T14:16:29Z</time>
      </trkpt>
      <trkpt lat="43.99894" lon="0.485">
        <ele>114</ele>
        <time>2014-03-24T14:16:59Z</time>
      </trkpt>
      <trkpt lat="43.99895" lon="0.48485">
        <ele>114</ele>
        <time>2014-03-24T14:17:30Z</time>
      </trkpt>
      <trkpt lat="43.99913" lon="0.48488">
        <ele>114</ele>
        <time>2014-03-24T14:18:00Z</time>
      </trkpt>
      <trkpt lat="43.99928" lon="0.48495">
        <ele>117</ele>
        <time>2014-03-24T14:18:30Z</time>
      </trkpt>
      <trkpt lat="43.99947" lon="0.4851">
        <ele>117</ele>
        <time>2014-03-24T14:19:00Z</time>
      </trkpt>
      <trkpt lat="43.9998" lon="0.48527">
        <ele>117</ele>
        <time>2014-03-24T14:19:31Z</time>
      </trkpt>
      <trkpt lat="44.00015" lon="0.48542">
        <ele>121</ele>
        <time>2014-03-24T14:20:01Z</time>
      </trkpt>
      <trkpt lat="44.00051" lon="0.48553">
        <ele>121</ele>
        <time>2014-03-24T14:20:31Z</time>
      </trkpt>
      <trkpt lat="44.00082" lon="0.48568">
        <ele>121</ele>
        <time>2014-03-24T14:21:01Z</time>
      </trkpt>
      <trkpt lat="44.00116" lon="0.4859">
        <ele>121</ele>
        <time>2014-03-24T14:21:31Z</time>
      </trkpt>
      <trkpt lat="44.00145" lon="0.48623">
        <ele>121</ele>
        <time>2014-03-24T14:22:01Z</time>
      </trkpt>
      <trkpt lat="44.00173" lon="0.48658">
        <ele>120</ele>
        <time>2014-03-24T14:22:32Z</time>
      </trkpt>
      <trkpt lat="44.00198" lon="0.48676">
        <ele>120</ele>
        <time>2014-03-24T14:23:02Z</time>
      </trkpt>
      <trkpt lat="44.00207" lon="0.48639">
        <ele>120</ele>
        <time>2014-03-24T14:23:32Z</time>
      </trkpt>
      <trkpt lat="44.00219" lon="0.48599">
        <ele>119</ele>
        <time>2014-03-24T14:24:02Z</time>
      </trkpt>
      <trkpt lat="44.00233" lon="0.48561">
        <ele>119</ele>
        <time>2014-03-24T14:24:32Z</time>
      </trkpt>
      <trkpt lat="44.00246" lon="0.48526">
        <ele>119</ele>
        <time>2014-03-24T14:25:03Z</time>
      </trkpt>
      <trkpt lat="44.00262" lon="0.48491">
        <ele>119</ele>
        <time>2014-03-24T14:25:33Z</time>
      </trkpt>
      <trkpt lat="44.0028" lon="0.48465">
        <ele>119</ele>
        <time>2014-03-24T14:26:03Z</time>
      </trkpt>
      <trkpt lat="44.003" lon="0.48444">
        <ele>115</ele>
        <time>2014-03-24T14:26:33Z</time>
      </trkpt>
      <trkpt lat="44.00314" lon="0.48427">
        <ele>110</ele>
        <time>2014-03-24T14:27:03Z</time>
      </trkpt>
      <trkpt lat="44.00328" lon="0.4841">
        <ele>110</ele>
        <time>2014-03-24T14:27:33Z</time>
      </trkpt>
      <trkpt lat="44.0034" lon="0.48393">
        <ele>110</ele>
        <time>2014-03-24T14:28:04Z</time>
      </trkpt>
      <trkpt lat="44.00349" lon="0.48375">
        <ele>107</ele>
        <time>2014-03-24T14:28:34Z</time>
      </trkpt>
      <trkpt lat="44.00352" lon="0.4837">
        <ele>107</ele>
        <time>2014-03-24T14:29:04Z</time>
      </trkpt>
      <trkpt lat="44.0036" lon="0.48347">
        <ele>107</ele>
        <time>2014-03-24T14:29:34Z</time>
      </trkpt>
      <trkpt lat="44.00373" lon="0.48353">
        <ele>107</ele>
        <time>2014-03-24T14:30:04Z</time>
      </trkpt>
      <trkpt lat="44.00391" lon="0.48333">
        <ele>103</ele>
        <time>2014-03-24T14:30:35Z</time>
      </trkpt>
      <trkpt lat="44.00414" lon="0.48307">
        <ele>103</ele>
        <time>2014-03-24T14:31:05Z</time>
      </trkpt>
      <trkpt lat="44.00444" lon="0.4828">
        <ele>103</ele>
        <time>2014-03-24T14:31:35Z</time>
      </trkpt>
      <trkpt lat="44.0047" lon="0.4825">
        <ele>99</ele>
        <time>2014-03-24T14:32:05Z</time>
      </trkpt>
      <trkpt lat="44.00494" lon="0.4822">
        <ele>99</ele>
        <time>2014-03-24T14:32:35Z</time>
      </trkpt>
      <trkpt lat="44.00523" lon="0.48207">
        <ele>96</ele>
        <time>2014-03-24T14:33:06Z</time>
      </trkpt>
      <trkpt lat="44.00555" lon="0.48203">
        <ele>91</ele>
        <time>2014-03-24T14:33:36Z</time>
      </trkpt>
      <trkpt lat="44.00587" lon="0.48199">
        <ele>91</ele>
        <time>2014-03-24T14:34:06Z</time>
      </trkpt>
      <trkpt lat="44.00621" lon="0.48205">
        <ele>91</ele>
        <time>2014-03-24T14:34:36Z</time>
      </trkpt>
      <trkpt lat="44.00652" lon="0.48211">
        <ele>91</ele>
        <time>2014-03-24T14:35:06Z</time>
      </trkpt>
      <trkpt lat="44.00677" lon="0.48178">
        <ele>86</ele>
        <time>2014-03-24T14:35:37Z</time>
      </trkpt>
      <trkpt lat="44.00696" lon="0.48137">
        <ele>86</ele>
        <time>2014-03-24T14:36:07Z</time>
      </trkpt>
      <trkpt lat="44.00712" lon="0.48097">
        <ele>82</ele>
        <time>2014-03-24T14:36:37Z</time>
      </trkpt>
      <trkpt lat="44.00727" lon="0.48053">
        <ele>82</ele>
        <time>2014-03-24T14:37:07Z</time>
      </trkpt>
      <trkpt lat="44.00746" lon="0.48009">
        <ele>82</ele>
        <time>2014-03-24T14:37:38Z</time>
      </trkpt>
      <trkpt lat="44.00768" lon="0.4798">
        <ele>78</ele>
        <time>2014-03-24T14:38:08Z</time>
      </trkpt>
      <trkpt lat="44.0079" lon="0.4795">
        <ele>78</ele>
        <time>2014-03-24T14:38:38Z</time>
      </trkpt>
      <trkpt lat="44.00804" lon="0.47909">
        <ele>73</ele>
        <time>2014-03-24T14:39:08Z</time>
      </trkpt>
      <trkpt lat="44.00816" lon="0.47864">
        <ele>65</ele>
        <time>2014-03-24T14:39:38Z</time>
      </trkpt>
      <trkpt lat="44.00842" lon="0.47886">
        <ele>65</ele>
        <time>2014-03-24T14:40:09Z</time>
      </trkpt>
      <trkpt lat="44.00869" lon="0.47907">
        <ele>65</ele>
        <time>2014-03-24T14:40:39Z</time>
      </trkpt>
      <trkpt lat="44.00874" lon="0.47877">
        <ele>60</ele>
        <time>2014-03-24T14:41:09Z</time>
      </trkpt>
      <trkpt lat="44.00873" lon="0.47849">
        <ele>60</ele>
        <time>2014-03-24T14:41:39Z</time>
      </trkpt>
      <trkpt lat="44.00876" lon="0.47813">
        <ele>60</ele>
        <time>2014-03-24T14:42:09Z</time>
      </trkpt>
      <trkpt lat="44.0088" lon="0.47771">
        <ele>57</ele>
        <time>2014-03-24T14:42:40Z</time>
      </trkpt>
      <trkpt lat="44.00885" lon="0.47725">
        <ele>49</ele>
        <time>2014-03-24T14:43:10Z</time>
      </trkpt>
      <trkpt lat="44.00874" lon="0.47682">
        <ele>45</ele>
        <time>2014-03-24T14:43:40Z</time>
      </trkpt>
      <trkpt lat="44.00857" lon="0.47639">
        <ele>45</ele>
        <time>2014-03-24T14:44:10Z</time>
      </trkpt>
      <trkpt lat="44.00852" lon="0.47596">
        <ele>45</ele>
        <time>2014-03-24T14:44:40Z</time>
      </trkpt>
      <trkpt lat="44.00854" lon="0.47558">
        <ele>50</ele>
        <time>2014-03-24T14:45:11Z</time>
      </trkpt>
      <trkpt lat="44.0084" lon="0.47524">
        <ele>54</ele>
        <time>2014-03-24T14:45:41Z</time>
      </trkpt>
      <trkpt lat="44.0083" lon="0.4749">
        <ele>58</ele>
        <time>2014-03-24T14:46:11Z</time>
      </trkpt>
      <trkpt lat="44.0083" lon="0.47456">
        <ele>58</ele>
        <time>2014-03-24T14:46:41Z</time>
      </trkpt>
      <trkpt lat="44.00834" lon="0.47411">
        <ele>62</ele>
        <time>2014-03-24T14:47:11Z</time>
      </trkpt>
      <trkpt lat="44.00837" lon="0.47361">
        <ele>62</ele>
        <time>2014-03-24T14:47:42Z</time>
      </trkpt>
      <trkpt lat="44.00838" lon="0.47314">
        <ele>62</ele>
        <time>2014-03-24T14:48:12Z</time>
      </trkpt>
      <trkpt lat="44.00837" lon="0.47262">
        <ele>62</ele>
        <time>2014-03-24T14:48:42Z</time>
      </trkpt>
      <trkpt lat="44.00835" lon="0.47214">
        <ele>62</ele>
        <time>2014-03-24T14:49:12Z</time>
      </trkpt>
      <trkpt lat="44.00837" lon="0.47166">
        <ele>67</ele>
        <time>2014-03-24T14:49:42Z</time>
      </trkpt>
      <trkpt lat="44.00854" lon="0.47122">
        <ele>67</ele>
        <time>2014-03-24T14:50:12Z</time>
      </trkpt>
      <trkpt lat="44.00874" lon="0.47082">
        <ele>63</ele>
        <time>2014-03-24T14:50:43Z</time>
      </trkpt>
      <trkpt lat="44.00895" lon="0.47045">
        <ele>63</ele>
        <time>2014-03-24T14:51:13Z</time>
      </trkpt>
      <trkpt lat="44.00905" lon="0.47001">
        <ele>63</ele>
        <time>2014-03-24T14:51:43Z</time>
      </trkpt>
      <trkpt lat="44.0089" lon="0.46957">
        <ele>63</ele>
        <time>2014-03-24T14:52:13Z</time>
      </trkpt>
      <trkpt lat="44.00887" lon="0.46912">
        <ele>61</ele>
        <time>2014-03-24T14:52:43Z</time>
      </trkpt>
      <trkpt lat="44.00889" lon="0.46868">
        <ele>61</ele>
        <time>2014-03-24T14:53:14Z</time>
      </trkpt>
      <trkpt lat="44.00908" lon="0.46823">
        <ele>65</ele>
        <time>2014-03-24T14:53:44Z</time>
      </trkpt>
      <trkpt lat="44.00922" lon="0.46781">
        <ele>65</ele>
        <time>2014-03-24T14:54:14Z</time>
      </trkpt>
      <trkpt lat="44.00926" lon="0.46736">
        <ele>65</ele>
        <time>2014-03-24T14:54:44Z</time>
      </trkpt>
      <trkpt lat="44.00941" lon="0.46703">
        <ele>65</ele>
        <time>2014-03-24T14:55:15Z</time>
      </trkpt>
      <trkpt lat="44.00949" lon="0.46692">
        <ele>65</ele>
        <time>2014-03-24T14:55:45Z</time>
      </trkpt>
      <trkpt lat="44.00951" lon="0.46686">
        <ele>66</ele>
        <time>2014-03-24T14:56:15Z</time>
      </trkpt>
      <trkpt lat="44.00951" lon="0.46683">
        <ele>66</ele>
        <time>2014-03-24T14:56:45Z</time>
      </trkpt>
      <trkpt lat="44.00929" lon="0.46661">
        <ele>71</ele>
        <time>2014-03-24T14:57:15Z</time>
      </trkpt>
      <trkpt lat="44.00909" lon="0.4664">
        <ele>71</ele>
        <time>2014-03-24T14:57:46Z</time>
      </trkpt>
      <trkpt lat="44.00895" lon="0.46629">
        <ele>77</ele>
        <time>2014-03-24T14:58:16Z</time>
      </trkpt>
      <trkpt lat="44.00888" lon="0.46624">
        <ele>77</ele>
        <time>2014-03-24T14:58:46Z</time>
      </trkpt>
      <trkpt lat="44.00875" lon="0.46616">
        <ele>81</ele>
        <time>2014-03-24T14:59:16Z</time>
      </trkpt>
      <trkpt lat="44.00856" lon="0.46605">
        <ele>86</ele>
        <time>2014-03-24T14:59:46Z</time>
      </trkpt>
      <trkpt lat="44.00844" lon="0.466">
        <ele>86</ele>
        <time>2014-03-24T15:00:17Z</time>
      </trkpt>
      <trkpt lat="44.00835" lon="0.46595">
        <ele>91</ele>
        <time>2014-03-24T15:00:47Z</time>
      </trkpt>
      <trkpt lat="44.00817" lon="0.46584">
        <ele>96</ele>
        <time>2014-03-24T15:01:17Z</time>
      </trkpt>
      <trkpt lat="44.0081" lon="0.46571">
        <ele>96</ele>
        <time>2014-03-24T15:01:47Z</time>
      </trkpt>
      <trkpt lat="44.00813" lon="0.46573">
        <ele>100</ele>
        <time>2014-03-24T15:02:17Z</time>
      </trkpt>
      <trkpt lat="44.00813" lon="0.46572">
        <ele>100</ele>
        <time>2014-03-24T15:02:47Z</time>
      </trkpt>
      <trkpt lat="44.00814" lon="0.46575">
        <ele>100</ele>
        <time>2014-03-24T15:03:18Z</time>
      </trkpt>
      <trkpt lat="44.00813" lon="0.46575">
        <ele>100</ele>
        <time>2014-03-24T15:03:48Z</time>
      </trkpt>
      <trkpt lat="44.00812" lon="0.46576">
        <ele>100</ele>
        <time>2014-03-24T15:04:18Z</time>
      </trkpt>
      <trkpt lat="44.00813" lon="0.46574">
        <ele>100</ele>
        <time>2014-03-24T15:04:48Z</time>
      </trkpt>
      <trkpt lat="44.00811" lon="0.46575">
        <ele>98</ele>
        <time>2014-03-24T15:05:18Z</time>
      </trkpt>
      <trkpt lat="44.00811" lon="0.46575">
        <ele>98</ele>
        <time>2014-03-24T15:05:49Z</time>
      </trkpt>
      <trkpt lat="44.00811" lon="0.46571">
        <ele>98</ele>
        <time>2014-03-24T15:06:19Z</time>
      </trkpt>
      <trkpt lat="44.0081" lon="0.46573">
        <ele>98</ele>
        <time>2014-03-24T15:06:49Z</time>
      </trkpt>
      <trkpt lat="44.0081" lon="0.46573">
        <ele>98</ele>
        <time>2014-03-24T15:07:19Z</time>
      </trkpt>
      <trkpt lat="44.00812" lon="0.46573">
        <ele>98</ele>
        <time>2014-03-24T15:07:49Z</time>
      </trkpt>
      <trkpt lat="44.00816" lon="0.46574">
        <ele>98</ele>
        <time>2014-03-24T15:08:19Z</time>
      </trkpt>
      <trkpt lat="44.00821" lon="0.46569">
        <ele>98</ele>
        <time>2014-03-24T15:08:50Z</time>
      </trkpt>
      <trkpt lat="44.00816" lon="0.46572">
        <ele>98</ele>
        <time>2014-03-24T15:09:20Z</time>
      </trkpt>
      <trkpt lat="44.008" lon="0.46602">
        <ele>98</ele>
        <time>2014-03-24T15:09:50Z</time>
      </trkpt>
      <trkpt lat="44.00787" lon="0.46627">
        <ele>98</ele>
        <time>2014-03-24T15:10:20Z</time>
      </trkpt>
      <trkpt lat="44.00779" lon="0.46661">
        <ele>98</ele>
        <time>2014-03-24T15:10:50Z</time>
      </trkpt>
      <trkpt lat="44.00758" lon="0.46689">
        <ele>98</ele>
        <time>2014-03-24T15:11:21Z</time>
      </trkpt>
      <trkpt lat="44.00725" lon="0.46685">
        <ele>98</ele>
        <time>2014-03-24T15:11:51Z</time>
      </trkpt>
      <trkpt lat="44.00721" lon="0.46647">
        <ele>100</ele>
        <time>2014-03-24T15:12:21Z</time>
      </trkpt>
      <trkpt lat="44.00695" lon="0.46641">
        <ele>95</ele>
        <time>2014-03-24T15:12:51Z</time>
      </trkpt>
      <trkpt lat="44.00662" lon="0.46639">
        <ele>90</ele>
        <time>2014-03-24T15:13:21Z</time>
      </trkpt>
      <trkpt lat="44.00628" lon="0.46635">
        <ele>86</ele>
        <time>2014-03-24T15:13:52Z</time>
      </trkpt>
      <trkpt lat="44.00592" lon="0.46631">
        <ele>81</ele>
        <time>2014-03-24T15:14:22Z</time>
      </trkpt>
      <trkpt lat="44.00573" lon="0.46611">
        <ele>81</ele>
        <time>2014-03-24T15:14:52Z</time>
      </trkpt>
      <trkpt lat="44.00576" lon="0.46581">
        <ele>77</ele>
        <time>2014-03-24T15:15:22Z</time>
      </trkpt>
      <trkpt lat="44.00563" lon="0.46614">
        <ele>77</ele>
        <time>2014-03-24T15:15:52Z</time>
      </trkpt>
      <trkpt lat="44.00551" lon="0.46654">
        <ele>77</ele>
        <time>2014-03-24T15:16:22Z</time>
      </trkpt>
      <trkpt lat="44.00541" lon="0.46692">
        <ele>77</ele>
        <time>2014-03-24T15:16:53Z</time>
      </trkpt>
      <trkpt lat="44.00542" lon="0.46709">
        <ele>78</ele>
        <time>2014-03-24T15:17:23Z</time>
      </trkpt>
      <trkpt lat="44.00528" lon="0.46747">
        <ele>78</ele>
        <time>2014-03-24T15:17:53Z</time>
      </trkpt>
      <trkpt lat="44.00518" lon="0.46787">
        <ele>78</ele>
        <time>2014-03-24T15:18:24Z</time>
      </trkpt>
      <trkpt lat="44.00512" lon="0.46832">
        <ele>80</ele>
        <time>2014-03-24T15:18:54Z</time>
      </trkpt>
      <trkpt lat="44.00493" lon="0.46868">
        <ele>80</ele>
        <time>2014-03-24T15:19:24Z</time>
      </trkpt>
      <trkpt lat="44.00462" lon="0.46871">
        <ele>80</ele>
        <time>2014-03-24T15:19:54Z</time>
      </trkpt>
      <trkpt lat="44.00436" lon="0.46896">
        <ele>78</ele>
        <time>2014-03-24T15:20:24Z</time>
      </trkpt>
      <trkpt lat="44.00412" lon="0.46932">
        <ele>78</ele>
        <time>2014-03-24T15:20:54Z</time>
      </trkpt>
      <trkpt lat="44.0038" lon="0.46931">
        <ele>82</ele>
        <time>2014-03-24T15:21:25Z</time>
      </trkpt>
      <trkpt lat="44.00349" lon="0.46931">
        <ele>82</ele>
        <time>2014-03-24T15:21:55Z</time>
      </trkpt>
      <trkpt lat="44.00325" lon="0.46956">
        <ele>86</ele>
        <time>2014-03-24T15:22:25Z</time>
      </trkpt>
      <trkpt lat="44.00305" lon="0.46995">
        <ele>90</ele>
        <time>2014-03-24T15:22:55Z</time>
      </trkpt>
      <trkpt lat="44.00288" lon="0.47035">
        <ele>90</ele>
        <time>2014-03-24T15:23:25Z</time>
      </trkpt>
      <trkpt lat="44.00269" lon="0.47078">
        <ele>90</ele>
        <time>2014-03-24T15:23:56Z</time>
      </trkpt>
      <trkpt lat="44.00257" lon="0.47113">
        <ele>95</ele>
        <time>2014-03-24T15:24:26Z</time>
      </trkpt>
      <trkpt lat="44.00245" lon="0.4715">
        <ele>100</ele>
        <time>2014-03-24T15:24:56Z</time>
      </trkpt>
      <trkpt lat="44.00239" lon="0.47186">
        <ele>100</ele>
        <time>2014-03-24T15:25:26Z</time>
      </trkpt>
      <trkpt lat="44.00225" lon="0.47221">
        <ele>104</ele>
        <time>2014-03-24T15:25:56Z</time>
      </trkpt>
      <trkpt lat="44.00215" lon="0.47263">
        <ele>109</ele>
        <time>2014-03-24T15:26:27Z</time>
      </trkpt>
      <trkpt lat="44.00206" lon="0.47299">
        <ele>109</ele>
        <time>2014-03-24T15:26:57Z</time>
      </trkpt>
      <trkpt lat="44.002" lon="0.4733">
        <ele>109</ele>
        <time>2014-03-24T15:27:27Z</time>
      </trkpt>
      <trkpt lat="44.00229" lon="0.47342">
        <ele>109</ele>
        <time>2014-03-24T15:27:57Z</time>
      </trkpt>
      <trkpt lat="44.00261" lon="0.47357">
        <ele>111</ele>
        <time>2014-03-24T15:28:27Z</time>
      </trkpt>
      <trkpt lat="44.00289" lon="0.47384">
        <ele>111</ele>
        <time>2014-03-24T15:28:58Z</time>
      </trkpt>
      <trkpt lat="44.00267" lon="0.47417">
        <ele>111</ele>
        <time>2014-03-24T15:29:28Z</time>
      </trkpt>
      <trkpt lat="44.00244" lon="0.47448">
        <ele>114</ele>
        <time>2014-03-24T15:29:58Z</time>
      </trkpt>
      <trkpt lat="44.00218" lon="0.47479">
        <ele>114</ele>
        <time>2014-03-24T15:30:28Z</time>
      </trkpt>
      <trkpt lat="44.00195" lon="0.47512">
        <ele>118</ele>
        <time>2014-03-24T15:30:58Z</time>
      </trkpt>
      <trkpt lat="44.00167" lon="0.47545">
        <ele>118</ele>
        <time>2014-03-24T15:31:29Z</time>
      </trkpt>
      <trkpt lat="44.00142" lon="0.47563">
        <ele>118</ele>
        <time>2014-03-24T15:31:59Z</time>
      </trkpt>
      <trkpt lat="44.00118" lon="0.47591">
        <ele>120</ele>
        <time>2014-03-24T15:32:29Z</time>
      </trkpt>
      <trkpt lat="44.00098" lon="0.47624">
        <ele>120</ele>
        <time>2014-03-24T15:32:59Z</time>
      </trkpt>
      <trkpt lat="44.00076" lon="0.47662">
        <ele>120</ele>
        <time>2014-03-24T15:33:29Z</time>
      </trkpt>
      <trkpt lat="44.00064" lon="0.47708">
        <ele>116</ele>
        <time>2014-03-24T15:34:00Z</time>
      </trkpt>
      <trkpt lat="44.00057" lon="0.47748">
        <ele>112</ele>
        <time>2014-03-24T15:34:30Z</time>
      </trkpt>
      <trkpt lat="44.00081" lon="0.47788">
        <ele>112</ele>
        <time>2014-03-24T15:35:00Z</time>
      </trkpt>
      <trkpt lat="44.00089" lon="0.47826">
        <ele>108</ele>
        <time>2014-03-24T15:35:30Z</time>
      </trkpt>
      <trkpt lat="44.00083" lon="0.47854">
        <ele>108</ele>
        <time>2014-03-24T15:36:00Z</time>
      </trkpt>
      <trkpt lat="44.00085" lon="0.47879">
        <ele>108</ele>
        <time>2014-03-24T15:36:30Z</time>
      </trkpt>
      <trkpt lat="44.00076" lon="0.47922">
        <ele>108</ele>
        <time>2014-03-24T15:37:01Z</time>
      </trkpt>
      <trkpt lat="44.00074" lon="0.47961">
        <ele>110</ele>
        <time>2014-03-24T15:37:31Z</time>
      </trkpt>
      <trkpt lat="44.00068" lon="0.48006">
        <ele>110</ele>
        <time>2014-03-24T15:38:01Z</time>
      </trkpt>
      <trkpt lat="44.00061" lon="0.48022">
        <ele>110</ele>
        <time>2014-03-24T15:38:31Z</time>
      </trkpt>
      <trkpt lat="44.00045" lon="0.48028">
        <ele>110</ele>
        <time>2014-03-24T15:39:02Z</time>
      </trkpt>
      <trkpt lat="44.00032" lon="0.48062">
        <ele>116</ele>
        <time>2014-03-24T15:39:32Z</time>
      </trkpt>
      <trkpt lat="44.00013" lon="0.48085">
        <ele>116</ele>
        <time>2014-03-24T15:40:02Z</time>
      </trkpt>
      <trkpt lat="43.99986" lon="0.48091">
        <ele>111</ele>
        <time>2014-03-24T15:40:32Z</time>
      </trkpt>
      <trkpt lat="43.99963" lon="0.4808">
        <ele>106</ele>
        <time>2014-03-24T15:41:02Z</time>
      </trkpt>
      <trkpt lat="43.99939" lon="0.4806">
        <ele>102</ele>
        <time>2014-03-24T15:41:32Z</time>
      </trkpt>
      <trkpt lat="43.99915" lon="0.48052">
        <ele>102</ele>
        <time>2014-03-24T15:42:02Z</time>
      </trkpt>
      <trkpt lat="43.99891" lon="0.48064">
        <ele>98</ele>
        <time>2014-03-24T15:42:33Z</time>
      </trkpt>
      <trkpt lat="43.99865" lon="0.48069">
        <ele>98</ele>
        <time>2014-03-24T15:43:03Z</time>
      </trkpt>
      <trkpt lat="43.99851" lon="0.48054">
        <ele>98</ele>
        <time>2014-03-24T15:43:33Z</time>
      </trkpt>
      <trkpt lat="43.99834" lon="0.48047">
        <ele>98</ele>
        <time>2014-03-24T15:44:03Z</time>
      </trkpt>
      <trkpt lat="43.99797" lon="0.4804">
        <ele>101</ele>
        <time>2014-03-24T15:44:33Z</time>
      </trkpt>
      <trkpt lat="43.99762" lon="0.48028">
        <ele>96</ele>
        <time>2014-03-24T15:45:04Z</time>
      </trkpt>
      <trkpt lat="43.99728" lon="0.48014">
        <ele>96</ele>
        <time>2014-03-24T15:45:34Z</time>
      </trkpt>
      <trkpt lat="43.99707" lon="0.4798">
        <ele>96</ele>
        <time>2014-03-24T15:46:04Z</time>
      </trkpt>
      <trkpt lat="43.99692" lon="0.47938">
        <ele>96</ele>
        <time>2014-03-24T15:46:34Z</time>
      </trkpt>
      <trkpt lat="43.99675" lon="0.47896">
        <ele>93</ele>
        <time>2014-03-24T15:47:04Z</time>
      </trkpt>
      <trkpt lat="43.99665" lon="0.47887">
        <ele>93</ele>
        <time>2014-03-24T15:47:34Z</time>
      </trkpt>
      <trkpt lat="43.99646" lon="0.47877">
        <ele>93</ele>
        <time>2014-03-24T15:48:05Z</time>
      </trkpt>
      <trkpt lat="43.99617" lon="0.47872">
        <ele>93</ele>
        <time>2014-03-24T15:48:35Z</time>
      </trkpt>
      <trkpt lat="43.99593" lon="0.47857">
        <ele>93</ele>
        <time>2014-03-24T15:49:05Z</time>
      </trkpt>
      <trkpt lat="43.99564" lon="0.47859">
        <ele>93</ele>
        <time>2014-03-24T15:49:35Z</time>
      </trkpt>
      <trkpt lat="43.99535" lon="0.47861">
        <ele>90</ele>
        <time>2014-03-24T15:50:06Z</time>
      </trkpt>
      <trkpt lat="43.995" lon="0.47858">
        <ele>85</ele>
        <time>2014-03-24T15:50:36Z</time>
      </trkpt>
      <trkpt lat="43.9947" lon="0.47847">
        <ele>85</ele>
        <time>2014-03-24T15:51:06Z</time>
      </trkpt>
      <trkpt lat="43.99444" lon="0.47826">
        <ele>85</ele>
        <time>2014-03-24T15:51:36Z</time>
      </trkpt>
      <trkpt lat="43.9942" lon="0.47808">
        <ele>87</ele>
        <time>2014-03-24T15:52:06Z</time>
      </trkpt>
      <trkpt lat="43.99393" lon="0.47797">
        <ele>87</ele>
        <time>2014-03-24T15:52:37Z</time>
      </trkpt>
      <trkpt lat="43.9937" lon="0.47787">
        <ele>87</ele>
        <time>2014-03-24T15:53:07Z</time>
      </trkpt>
      <trkpt lat="43.99353" lon="0.47766">
        <ele>87</ele>
        <time>2014-03-24T15:53:37Z</time>
      </trkpt>
      <trkpt lat="43.99335" lon="0.47746">
        <ele>87</ele>
        <time>2014-03-24T15:54:07Z</time>
      </trkpt>
      <trkpt lat="43.99304" lon="0.47731">
        <ele>91</ele>
        <time>2014-03-24T15:54:37Z</time>
      </trkpt>
      <trkpt lat="43.99274" lon="0.47721">
        <ele>91</ele>
        <time>2014-03-24T15:55:08Z</time>
      </trkpt>
      <trkpt lat="43.9925" lon="0.47712">
        <ele>91</ele>
        <time>2014-03-24T15:55:38Z</time>
      </trkpt>
      <trkpt lat="43.99223" lon="0.4771">
        <ele>95</ele>
        <time>2014-03-24T15:56:08Z</time>
      </trkpt>
      <trkpt lat="43.99191" lon="0.47703">
        <ele>95</ele>
        <time>2014-03-24T15:56:38Z</time>
      </trkpt>
      <trkpt lat="43.99162" lon="0.47707">
        <ele>91</ele>
        <time>2014-03-24T15:57:08Z</time>
      </trkpt>
      <trkpt lat="43.99145" lon="0.47711">
        <ele>91</ele>
        <time>2014-03-24T15:57:39Z</time>
      </trkpt>
      <trkpt lat="43.99113" lon="0.47714">
        <ele>91</ele>
        <time>2014-03-24T15:58:09Z</time>
      </trkpt>
      <trkpt lat="43.9908" lon="0.47721">
        <ele>87</ele>
        <time>2014-03-24T15:58:39Z</time>
      </trkpt>
      <trkpt lat="43.99043" lon="0.47728">
        <ele>87</ele>
        <time>2014-03-24T15:59:09Z</time>
      </trkpt>
      <trkpt lat="43.99007" lon="0.47726">
        <ele>87</ele>
        <time>2014-03-24T15:59:40Z</time>
      </trkpt>
      <trkpt lat="43.98977" lon="0.4772">
        <ele>87</ele>
        <time>2014-03-24T16:00:10Z</time>
      </trkpt>
      <trkpt lat="43.98944" lon="0.47708">
        <ele>86</ele>
        <time>2014-03-24T16:00:40Z</time>
      </trkpt>
      <trkpt lat="43.98918" lon="0.47702">
        <ele>82</ele>
        <time>2014-03-24T16:01:10Z</time>
      </trkpt>
      <trkpt lat="43.9888" lon="0.47693">
        <ele>82</ele>
        <time>2014-03-24T16:01:40Z</time>
      </trkpt>
      <trkpt lat="43.98844" lon="0.47677">
        <ele>82</ele>
        <time>2014-03-24T16:02:10Z</time>
      </trkpt>
      <trkpt lat="43.9881" lon="0.47656">
        <ele>82</ele>
        <time>2014-03-24T16:02:41Z</time>
      </trkpt>
      <trkpt lat="43.9878" lon="0.47645">
        <ele>87</ele>
        <time>2014-03-24T16:03:11Z</time>
      </trkpt>
      <trkpt lat="43.98745" lon="0.47657">
        <ele>92</ele>
        <time>2014-03-24T16:03:41Z</time>
      </trkpt>
      <trkpt lat="43.98708" lon="0.4767">
        <ele>92</ele>
        <time>2014-03-24T16:04:11Z</time>
      </trkpt>
      <trkpt lat="43.98674" lon="0.47687">
        <ele>92</ele>
        <time>2014-03-24T16:04:41Z</time>
      </trkpt>
      <trkpt lat="43.9864" lon="0.47703">
        <ele>92</ele>
        <time>2014-03-24T16:05:12Z</time>
      </trkpt>
      <trkpt lat="43.98608" lon="0.47717">
        <ele>92</ele>
        <time>2014-03-24T16:05:42Z</time>
      </trkpt>
      <trkpt lat="43.98575" lon="0.4773">
        <ele>92</ele>
        <time>2014-03-24T16:06:12Z</time>
      </trkpt>
      <trkpt lat="43.98551" lon="0.47739">
        <ele>92</ele>
        <time>2014-03-24T16:06:42Z</time>
      </trkpt>
      <trkpt lat="43.98551" lon="0.47741">
        <ele>92</ele>
        <time>2014-03-24T16:07:12Z</time>
      </trkpt>
      <trkpt lat="43.98536" lon="0.47742">
        <ele>91</ele>
        <time>2014-03-24T16:07:42Z</time>
      </trkpt>
      <trkpt lat="43.98502" lon="0.47747">
        <ele>91</ele>
        <time>2014-03-24T16:08:13Z</time>
      </trkpt>
      <trkpt lat="43.98469" lon="0.47751">
        <ele>87</ele>
        <time>2014-03-24T16:08:43Z</time>
      </trkpt>
      <trkpt lat="43.98437" lon="0.47754">
        <ele>87</ele>
        <time>2014-03-24T16:09:13Z</time>
      </trkpt>
      <trkpt lat="43.98401" lon="0.47761">
        <ele>87</ele>
        <time>2014-03-24T16:09:43Z</time>
      </trkpt>
      <trkpt lat="43.98367" lon="0.47764">
        <ele>87</ele>
        <time>2014-03-24T16:10:13Z</time>
      </trkpt>
      <trkpt lat="43.98344" lon="0.47778">
        <ele>85</ele>
        <time>2014-03-24T16:10:44Z</time>
      </trkpt>
      <trkpt lat="43.98338" lon="0.47818">
        <ele>85</ele>
        <time>2014-03-24T16:11:14Z</time>
      </trkpt>
      <trkpt lat="43.98335" lon="0.47854">
        <ele>85</ele>
        <time>2014-03-24T16:11:44Z</time>
      </trkpt>
      <trkpt lat="43.98328" lon="0.47894">
        <ele>85</ele>
        <time>2014-03-24T16:12:14Z</time>
      </trkpt>
      <trkpt lat="43.98322" lon="0.47934">
        <ele>87</ele>
        <time>2014-03-24T16:12:44Z</time>
      </trkpt>
      <trkpt lat="43.98318" lon="0.47969">
        <ele>91</ele>
        <time>2014-03-24T16:13:14Z</time>
      </trkpt>
      <trkpt lat="43.98313" lon="0.48005">
        <ele>91</ele>
        <time>2014-03-24T16:13:45Z</time>
      </trkpt>
      <trkpt lat="43.98308" lon="0.4804">
        <ele>96</ele>
        <time>2014-03-24T16:14:15Z</time>
      </trkpt>
      <trkpt lat="43.98301" lon="0.48081">
        <ele>100</ele>
        <time>2014-03-24T16:14:45Z</time>
      </trkpt>
      <trkpt lat="43.98296" lon="0.48115">
        <ele>100</ele>
        <time>2014-03-24T16:15:15Z</time>
      </trkpt>
      <trkpt lat="43.98291" lon="0.48152">
        <ele>104</ele>
        <time>2014-03-24T16:15:45Z</time>
      </trkpt>
      <trkpt lat="43.98288" lon="0.48164">
        <ele>108</ele>
        <time>2014-03-24T16:16:16Z</time>
      </trkpt>
      <trkpt lat="43.98284" lon="0.48191">
        <ele>108</ele>
        <time>2014-03-24T16:16:46Z</time>
      </trkpt>
      <trkpt lat="43.98283" lon="0.48216">
        <ele>108</ele>
        <time>2014-03-24T16:17:16Z</time>
      </trkpt>
      <trkpt lat="43.98274" lon="0.48242">
        <ele>111</ele>
        <time>2014-03-24T16:17:46Z</time>
      </trkpt>
      <trkpt lat="43.98266" lon="0.48265">
        <ele>116</ele>
        <time>2014-03-24T16:18:16Z</time>
      </trkpt>
      <trkpt lat="43.98259" lon="0.4829">
        <ele>116</ele>
        <time>2014-03-24T16:18:47Z</time>
      </trkpt>
      <trkpt lat="43.98251" lon="0.48329">
        <ele>116</ele>
        <time>2014-03-24T16:19:17Z</time>
      </trkpt>
      <trkpt lat="43.98242" lon="0.4837">
        <ele>116</ele>
        <time>2014-03-24T16:19:47Z</time>
      </trkpt>
      <trkpt lat="43.98233" lon="0.48401">
        <ele>120</ele>
        <time>2014-03-24T16:20:17Z</time>
      </trkpt>
      <trkpt lat="43.98218" lon="0.48437">
        <ele>120</ele>
        <time>2014-03-24T16:20:47Z</time>
      </trkpt>
      <trkpt lat="43.98202" lon="0.48463">
        <ele>120</ele>
        <time>2014-03-24T16:21:18Z</time>
      </trkpt>
      <trkpt lat="43.9819" lon="0.48487">
        <ele>120</ele>
        <time>2014-03-24T16:21:48Z</time>
      </trkpt>
      <trkpt lat="43.98182" lon="0.48517">
        <ele>120</ele>
        <time>2014-03-24T16:22:18Z</time>
      </trkpt>
      <trkpt lat="43.98186" lon="0.48558">
        <ele>120</ele>
        <time>2014-03-24T16:22:48Z</time>
      </trkpt>
      <trkpt lat="43.98191" lon="0.48605">
        <ele>120</ele>
        <time>2014-03-24T16:23:18Z</time>
      </trkpt>
      <trkpt lat="43.98196" lon="0.48654">
        <ele>120</ele>
        <time>2014-03-24T16:23:49Z</time>
      </trkpt>
      <trkpt lat="43.98201" lon="0.48686">
        <ele>117</ele>
        <time>2014-03-24T16:24:19Z</time>
      </trkpt>
      <trkpt lat="43.98199" lon="0.48725">
        <ele>117</ele>
        <time>2014-03-24T16:24:49Z</time>
      </trkpt>
      <trkpt lat="43.98203" lon="0.48758">
        <ele>118</ele>
        <time>2014-03-24T16:25:19Z</time>
      </trkpt>
      <trkpt lat="43.98204" lon="0.48796">
        <ele>118</ele>
        <time>2014-03-24T16:25:49Z</time>
      </trkpt>
      <trkpt lat="43.98199" lon="0.48836">
        <ele>118</ele>
        <time>2014-03-24T16:26:19Z</time>
      </trkpt>
      <trkpt lat="43.98191" lon="0.48883">
        <ele>115</ele>
        <time>2014-03-24T16:26:50Z</time>
      </trkpt>
      <trkpt lat="43.98183" lon="0.48929">
        <ele>115</ele>
        <time>2014-03-24T16:27:20Z</time>
      </trkpt>
      <trkpt lat="43.98178" lon="0.48971">
        <ele>115</ele>
        <time>2014-03-24T16:27:50Z</time>
      </trkpt>
      <trkpt lat="43.98173" lon="0.49013">
        <ele>115</ele>
        <time>2014-03-24T16:28:20Z</time>
      </trkpt>
      <trkpt lat="43.98171" lon="0.49058">
        <ele>115</ele>
        <time>2014-03-24T16:28:50Z</time>
      </trkpt>
      <trkpt lat="43.98172" lon="0.49102">
        <ele>111</ele>
        <time>2014-03-24T16:29:21Z</time>
      </trkpt>
      <trkpt lat="43.98171" lon="0.49134">
        <ele>111</ele>
        <time>2014-03-24T16:29:51Z</time>
      </trkpt>
      <trkpt lat="43.98169" lon="0.49164">
        <ele>111</ele>
        <time>2014-03-24T16:30:21Z</time>
      </trkpt>
      <trkpt lat="43.9817" lon="0.49182">
        <ele>111</ele>
        <time>2014-03-24T16:30:51Z</time>
      </trkpt>
      <trkpt lat="43.9817" lon="0.49207">
        <ele>107</ele>
        <time>2014-03-24T16:31:21Z</time>
      </trkpt>
      <trkpt lat="43.98169" lon="0.49251">
        <ele>107</ele>
        <time>2014-03-24T16:31:51Z</time>
      </trkpt>
      <trkpt lat="43.98167" lon="0.49299">
        <ele>103</ele>
        <time>2014-03-24T16:32:22Z</time>
      </trkpt>
      <trkpt lat="43.9817" lon="0.49345">
        <ele>103</ele>
        <time>2014-03-24T16:32:52Z</time>
      </trkpt>
      <trkpt lat="43.98177" lon="0.49389">
        <ele>103</ele>
        <time>2014-03-24T16:33:22Z</time>
      </trkpt>
      <trkpt lat="43.98175" lon="0.49424">
        <ele>103</ele>
        <time>2014-03-24T16:33:52Z</time>
      </trkpt>
      <trkpt lat="43.98187" lon="0.49467">
        <ele>100</ele>
        <time>2014-03-24T16:34:22Z</time>
      </trkpt>
      <trkpt lat="43.9818" lon="0.49503">
        <ele>100</ele>
        <time>2014-03-24T16:34:53Z</time>
      </trkpt>
      <trkpt lat="43.98156" lon="0.49534">
        <ele>97</ele>
        <time>2014-03-24T16:35:23Z</time>
      </trkpt>
    </trkseg>
  </trk>
</gpx>